createdAt,value
2023-05-16T00:03:52.138Z,99.90
2023-05-16T00:09:00.444Z,99.90
2023-05-16T00:14:08.478Z,99.90
2023-05-16T00:19:16.969Z,99.90
2023-05-16T00:24:24.354Z,99.90
2023-05-16T00:29:32.210Z,99.90
2023-05-16T00:34:41.131Z,99.90
2023-05-16T00:39:48.178Z,99.90
2023-05-16T00:44:55.682Z,99.90
2023-05-16T00:50:02.530Z,99.90
2023-05-16T00:55:11.828Z,99.90
2023-05-16T01:00:20.450Z,99.90
2023-05-16T01:05:27.913Z,99.90
2023-05-16T01:11:06.206Z,99.90
2023-05-16T01:16:34.837Z,99.90
2023-05-16T01:21:58.619Z,99.90
2023-05-16T01:27:06.878Z,99.90
2023-05-16T01:32:14.836Z,99.90
2023-05-16T01:37:26.466Z,99.90
2023-05-16T01:42:36.719Z,99.90
2023-05-16T01:47:49.182Z,99.90
2023-05-16T01:53:09.412Z,99.90
2023-05-16T01:58:20.705Z,99.90
2023-05-16T02:03:27.338Z,99.90
2023-05-16T02:08:34.853Z,99.90
2023-05-16T02:13:42.752Z,99.90
2023-05-16T02:18:50.193Z,99.90
2023-05-16T02:23:56.952Z,99.90
2023-05-16T02:29:03.599Z,99.90
2023-05-16T02:34:11.798Z,99.90
2023-05-16T02:39:19.801Z,99.90
2023-05-16T02:44:27.412Z,99.90
2023-05-16T02:49:35.294Z,99.90
2023-05-16T02:54:42.196Z,99.90
2023-05-16T02:59:49.494Z,99.90
2023-05-16T03:04:56.986Z,99.90
2023-05-16T03:10:05.180Z,99.90
2023-05-16T03:15:12.688Z,99.90
2023-05-16T03:20:19.782Z,99.90
2023-05-16T03:25:27.591Z,99.90
2023-05-16T03:30:35.263Z,99.90
2023-05-16T03:35:43.916Z,99.90
2023-05-16T03:40:51.764Z,99.90
2023-05-16T03:45:59.447Z,99.90
2023-05-16T03:51:06.540Z,99.90
2023-05-16T03:56:14.148Z,99.90
2023-05-16T04:01:22.511Z,99.90
2023-05-16T04:06:29.718Z,99.90
2023-05-16T04:11:36.816Z,99.90
2023-05-16T04:16:44.082Z,99.90
2023-05-16T04:21:52.973Z,99.90
2023-05-16T04:26:59.909Z,99.90
2023-05-16T04:32:08.012Z,99.90
2023-05-16T04:37:15.054Z,99.90
2023-05-16T04:42:22.268Z,99.90
2023-05-16T04:47:29.630Z,99.90
2023-05-16T04:52:39.074Z,99.90
2023-05-16T04:57:47.664Z,99.90
2023-05-16T05:02:54.710Z,99.90
2023-05-16T05:08:01.809Z,99.90
2023-05-16T05:13:08.443Z,99.90
2023-05-16T05:18:15.870Z,99.90
2023-05-16T05:23:22.605Z,99.90
2023-05-16T05:28:29.986Z,99.90
2023-05-16T05:33:36.730Z,99.90
2023-05-16T05:38:43.215Z,99.90
2023-05-16T05:43:49.825Z,99.90
2023-05-16T05:48:56.530Z,99.90
2023-05-16T05:54:04.812Z,99.90
2023-05-16T05:59:11.688Z,90.90
2023-05-16T06:04:18.302Z,1.00
2023-05-16T06:09:25.107Z,1.00
2023-05-16T06:14:32.973Z,1.00
2023-05-16T06:19:39.678Z,1.00
2023-05-16T06:24:46.609Z,1.00
2023-05-16T06:29:54.303Z,1.00
2023-05-16T06:35:01.147Z,1.00
2023-05-16T06:40:09.362Z,1.00
2023-05-16T06:45:17.198Z,1.00
2023-05-16T06:50:23.887Z,1.00
2023-05-16T06:55:31.134Z,1.00
2023-05-16T07:00:37.862Z,1.00
2023-05-16T07:05:44.749Z,1.00
2023-05-16T07:10:51.860Z,1.00
2023-05-16T07:15:58.344Z,1.00
2023-05-16T07:21:04.294Z,1.00
2023-05-16T07:26:10.819Z,1.00
2023-05-16T07:31:17.296Z,1.00
2023-05-16T07:36:24.246Z,1.00
2023-05-16T07:41:33.164Z,1.00
2023-05-16T07:46:40.212Z,1.00
2023-05-16T07:51:47.039Z,1.00
2023-05-16T07:56:53.872Z,1.00
2023-05-16T08:02:01.071Z,1.00
2023-05-16T08:07:08.092Z,1.00
2023-05-16T08:12:14.745Z,1.00
2023-05-16T08:17:22.982Z,1.00
2023-05-16T08:22:29.744Z,1.00
2023-05-16T08:27:37.203Z,1.00
2023-05-16T08:32:44.692Z,1.00
2023-05-16T08:37:51.898Z,1.00
2023-05-16T08:42:58.937Z,1.00
2023-05-16T08:48:10.108Z,1.00
2023-05-16T08:53:20.298Z,1.00
2023-05-16T08:58:30.314Z,1.00
2023-05-16T09:03:39.502Z,1.00
2023-05-16T09:08:47.072Z,1.00
2023-05-16T09:13:54.318Z,1.00
2023-05-16T09:19:03.101Z,1.00
2023-05-16T09:24:11.716Z,1.00
2023-05-16T09:29:19.644Z,1.00
2023-05-16T09:34:28.351Z,1.00
2023-05-16T09:39:35.103Z,99.90
2023-05-16T09:44:42.784Z,99.90
2023-05-16T09:49:54.916Z,1.00
2023-05-16T09:55:05.728Z,99.90
2023-05-16T10:00:14.480Z,99.90
2023-05-16T10:05:21.522Z,99.90
2023-05-16T10:10:30.043Z,99.90
2023-05-16T10:15:39.469Z,99.90
2023-05-16T10:20:50.749Z,1.00
2023-05-16T10:25:59.742Z,1.00
2023-05-16T10:31:09.676Z,1.00
2023-05-16T10:36:18.288Z,1.00
2023-05-16T10:41:26.432Z,1.00
2023-05-16T10:46:34.516Z,1.00
2023-05-16T10:51:41.684Z,1.00
2023-05-16T10:56:53.200Z,1.00
2023-05-16T11:02:00.120Z,1.00
2023-05-16T11:07:06.746Z,1.00
2023-05-16T11:12:15.257Z,1.00
2023-05-16T11:17:27.918Z,1.00
2023-05-16T11:22:43.480Z,1.00
2023-05-16T11:27:50.482Z,1.00
2023-05-16T11:32:58.097Z,1.00
2023-05-16T11:38:05.318Z,1.00
2023-05-16T11:43:13.143Z,1.00
2023-05-16T11:48:32.435Z,1.00
2023-05-16T11:53:30.005Z,1.00
2023-05-16T11:58:40.052Z,1.00
2023-05-16T12:03:48.839Z,1.00
2023-05-16T12:08:58.405Z,1.00
2023-05-16T12:14:10.370Z,1.00
2023-05-16T12:19:17.780Z,1.00
2023-05-16T12:24:30.063Z,1.00
2023-05-16T12:29:37.390Z,1.00
2023-05-16T12:34:57.155Z,1.00
2023-05-16T12:40:04.696Z,1.00
2023-05-16T12:45:19.675Z,1.00
2023-05-16T12:50:29.924Z,1.00
2023-05-16T12:55:38.000Z,1.00
2023-05-16T13:00:45.727Z,1.00
2023-05-16T13:05:53.486Z,1.00
2023-05-16T13:11:00.376Z,1.00
2023-05-16T13:16:09.044Z,1.00
2023-05-16T13:21:16.500Z,1.00
2023-05-16T13:26:25.006Z,26.80
2023-05-16T13:31:33.035Z,13.10
2023-05-16T13:36:52.986Z,38.60
2023-05-16T13:41:50.440Z,35.40
2023-05-16T13:46:59.618Z,37.00
2023-05-16T13:52:07.180Z,99.90
2023-05-16T13:57:15.081Z,99.90
2023-05-16T14:02:22.765Z,99.90
2023-05-16T14:07:29.516Z,99.90
2023-05-16T14:12:38.352Z,99.90
2023-05-16T14:17:45.271Z,99.90
2023-05-16T14:22:51.505Z,99.90
2023-05-16T14:27:59.184Z,99.90
2023-05-16T14:33:06.747Z,99.90
2023-05-16T14:38:15.287Z,99.90
2023-05-16T14:43:22.132Z,99.90
2023-05-16T14:48:29.449Z,99.90
2023-05-16T14:53:38.378Z,99.90
2023-05-16T14:58:45.263Z,99.90
2023-05-16T15:03:56.027Z,99.90
2023-05-16T15:09:00.592Z,99.90
2023-05-16T15:14:08.438Z,99.90
2023-05-16T15:19:16.237Z,99.90
2023-05-16T15:24:23.558Z,99.90
2023-05-16T15:29:30.639Z,99.90
2023-05-16T15:34:38.739Z,99.90
2023-05-16T15:39:46.578Z,99.90
2023-05-16T15:44:54.047Z,99.90
2023-05-16T15:50:01.470Z,99.90
2023-05-16T15:55:09.688Z,99.90
2023-05-16T16:00:17.909Z,99.90
2023-05-16T16:05:25.161Z,99.90
2023-05-16T16:10:32.656Z,99.90
2023-05-16T16:15:42.362Z,99.90
2023-05-16T16:20:49.770Z,99.90
2023-05-16T16:25:56.806Z,99.90
2023-05-16T16:31:03.892Z,99.90
2023-05-16T16:36:11.857Z,99.90
2023-05-16T16:41:18.960Z,99.90
2023-05-16T16:46:25.872Z,99.90
2023-05-16T16:51:36.075Z,99.90
2023-05-16T16:56:44.032Z,99.90
2023-05-16T17:01:51.766Z,99.90
2023-05-16T17:06:58.510Z,99.90
2023-05-16T17:12:07.484Z,99.90
2023-05-16T17:17:14.979Z,99.90
2023-05-16T17:22:22.838Z,99.90
2023-05-16T17:27:29.355Z,99.90
2023-05-16T17:32:35.485Z,99.90
2023-05-16T17:37:43.007Z,99.90
2023-05-16T17:42:51.546Z,99.90
2023-05-16T17:47:58.421Z,99.90
2023-05-16T17:53:07.629Z,99.90
2023-05-16T17:58:15.003Z,99.90
2023-05-16T18:03:22.291Z,99.90
2023-05-16T18:08:30.486Z,99.90
2023-05-16T18:13:38.384Z,99.90
2023-05-16T18:18:46.372Z,99.90
2023-05-16T18:23:56.527Z,99.90
2023-05-16T18:29:04.026Z,99.90
2023-05-16T18:34:14.243Z,99.90
2023-05-16T18:39:21.511Z,99.90
2023-05-16T18:44:29.155Z,99.90
2023-05-16T18:49:37.835Z,99.90
2023-05-16T18:54:45.356Z,99.90
2023-05-16T18:59:55.714Z,99.90
2023-05-16T19:05:05.369Z,99.90
2023-05-16T19:10:13.359Z,99.90
2023-05-16T19:15:20.599Z,99.90
2023-05-16T19:20:29.141Z,99.90
2023-05-16T19:25:36.926Z,99.90
2023-05-16T19:30:44.028Z,99.90
2023-05-16T19:35:52.816Z,99.90
2023-05-16T19:41:01.390Z,99.90
2023-05-16T19:46:11.392Z,99.90
2023-05-16T19:51:29.510Z,99.90
2023-05-16T19:56:28.937Z,99.90
2023-05-16T20:01:35.884Z,99.90
2023-05-16T20:06:42.993Z,99.90
2023-05-16T20:11:50.738Z,99.90
2023-05-16T20:16:58.797Z,99.90
2023-05-16T20:22:05.647Z,99.90
2023-05-16T20:27:13.616Z,99.90
2023-05-16T20:32:23.999Z,99.90
2023-05-16T20:37:32.704Z,99.90
2023-05-16T20:42:42.551Z,99.90
2023-05-16T20:47:51.897Z,99.90
2023-05-16T20:53:00.968Z,99.90
2023-05-16T20:58:07.887Z,99.90
2023-05-16T21:03:14.977Z,99.90
2023-05-16T21:08:24.456Z,99.90
2023-05-16T21:13:32.673Z,99.90
2023-05-16T21:18:39.945Z,99.90
2023-05-16T21:23:47.857Z,99.90
2023-05-16T21:28:55.836Z,99.90
2023-05-16T21:34:06.574Z,99.90
2023-05-16T21:39:14.322Z,99.90
2023-05-16T21:44:21.042Z,99.90
2023-05-16T21:49:29.866Z,99.90
2023-05-16T21:54:37.302Z,99.90
2023-05-16T21:59:44.870Z,99.90
2023-05-16T22:04:53.219Z,99.90
2023-05-16T22:10:00.835Z,99.90
2023-05-16T22:15:10.099Z,99.90
2023-05-16T22:20:17.349Z,99.90
2023-05-16T22:25:25.286Z,99.90
2023-05-16T22:30:32.301Z,99.90
2023-05-16T22:35:40.117Z,99.90
2023-05-16T22:40:47.614Z,99.90
2023-05-16T22:45:54.645Z,99.90
2023-05-16T22:51:02.902Z,99.90
2023-05-16T22:56:10.462Z,99.90
2023-05-16T23:01:17.936Z,99.90
2023-05-16T23:06:25.220Z,99.90
2023-05-16T23:11:33.494Z,99.90
2023-05-16T23:16:41.260Z,99.90
2023-05-16T23:21:48.634Z,99.90
2023-05-16T23:26:55.750Z,99.90
2023-05-16T23:32:02.783Z,99.90
2023-05-16T23:37:10.016Z,99.90
2023-05-16T23:42:16.777Z,99.90
2023-05-16T23:47:24.168Z,99.90
2023-05-16T23:52:30.709Z,99.90
2023-05-16T23:57:37.275Z,99.90
